createdAt,value
2022-12-18T00:02:24.567Z,5.38
2022-12-18T00:07:27.760Z,9.25
2022-12-18T00:12:31.022Z,10.05
2022-12-18T00:17:34.207Z,8.90
2022-12-18T00:22:37.269Z,9.70
2022-12-18T00:27:40.275Z,8.48
2022-12-18T00:32:43.674Z,7.13
2022-12-18T00:37:46.774Z,9.10
2022-12-18T00:42:58.826Z,8.05
2022-12-18T00:48:01.886Z,8.23
2022-12-18T00:53:05.209Z,10.65
2022-12-18T00:58:08.964Z,10.48
2022-12-18T01:03:15.538Z,8.60
2022-12-18T01:08:20.442Z,8.60
2022-12-18T01:13:23.645Z,8.77
2022-12-18T01:18:26.900Z,10.05
2022-12-18T01:23:30.160Z,9.73
2022-12-18T01:28:33.375Z,8.02
2022-12-18T01:33:36.966Z,10.05
2022-12-18T01:38:40.325Z,7.82
2022-12-18T01:44:01.523Z,7.30
2022-12-18T01:49:04.781Z,10.77
2022-12-18T01:54:07.921Z,6.80
2022-12-18T01:59:12.782Z,5.88
2022-12-18T02:04:25.063Z,4.97
2022-12-18T02:09:55.171Z,7.88
2022-12-18T02:15:11.095Z,11.52
2022-12-18T02:20:20.903Z,9.82
2022-12-18T02:25:57.744Z,5.13
2022-12-18T02:31:05.682Z,10.23
2022-12-18T02:36:10.994Z,6.18
2022-12-18T02:41:17.253Z,10.45
2022-12-18T02:46:32.484Z,11.23
2022-12-18T02:52:23.608Z,12.70
2022-12-18T02:57:52.860Z,6.20
2022-12-18T03:03:14.552Z,12.43
2022-12-18T03:08:23.353Z,11.23
2022-12-18T03:13:38.402Z,9.98
2022-12-18T03:19:18.203Z,11.73
2022-12-18T03:24:24.301Z,9.73
2022-12-18T03:29:40.147Z,12.48
2022-12-18T03:34:48.970Z,12.43
2022-12-18T03:39:54.313Z,8.95
2022-12-18T03:45:04.200Z,6.55
2022-12-18T03:50:29.652Z,7.38
2022-12-18T03:55:35.908Z,12.75
2022-12-18T04:00:42.758Z,10.50
2022-12-18T04:05:51.663Z,13.38
2022-12-18T04:10:57.322Z,12.20
2022-12-18T04:16:04.244Z,12.55
2022-12-18T04:21:07.711Z,8.80
2022-12-18T04:26:11.453Z,12.23
2022-12-18T04:31:27.752Z,11.93
2022-12-18T04:36:31.736Z,5.80
2022-12-18T04:41:34.895Z,12.32
2022-12-18T04:46:38.656Z,11.65
2022-12-18T04:51:41.800Z,9.23
2022-12-18T04:56:44.947Z,10.90
2022-12-18T05:01:48.276Z,10.60
2022-12-18T05:06:51.539Z,8.85
2022-12-18T05:11:55.033Z,8.15
2022-12-18T05:17:01.076Z,10.07
2022-12-18T05:22:04.652Z,10.90
2022-12-18T05:27:07.834Z,8.98
2022-12-18T05:32:10.986Z,9.93
2022-12-18T05:37:15.058Z,11.27
2022-12-18T05:42:18.124Z,8.63
2022-12-18T05:47:21.263Z,5.82
2022-12-18T05:52:24.427Z,5.47
2022-12-18T05:57:27.891Z,12.18
2022-12-18T06:02:31.120Z,7.43
2022-12-18T06:07:34.517Z,12.45
2022-12-18T06:12:37.697Z,8.32
2022-12-18T06:17:40.875Z,8.23
2022-12-18T06:22:44.154Z,9.10
2022-12-18T06:27:49.108Z,11.90
2022-12-18T06:32:56.580Z,10.77
2022-12-18T06:38:00.065Z,12.60
2022-12-18T06:43:03.327Z,10.98
2022-12-18T06:48:06.698Z,14.13
2022-12-18T06:53:09.780Z,12.98
2022-12-18T06:58:12.908Z,14.57
2022-12-18T07:03:16.059Z,12.30
2022-12-18T07:08:19.319Z,9.50
2022-12-18T07:13:22.464Z,13.90
2022-12-18T07:18:25.584Z,12.52
2022-12-18T07:23:28.811Z,11.15
2022-12-18T07:28:33.143Z,10.52
2022-12-18T07:33:36.882Z,7.80
2022-12-18T07:38:40.942Z,7.43
2022-12-18T07:43:44.718Z,8.30
2022-12-18T07:48:49.757Z,10.35
2022-12-18T07:53:53.468Z,8.52
2022-12-18T07:58:57.223Z,7.13
2022-12-18T08:04:00.518Z,6.28
2022-12-18T08:09:04.037Z,10.07
2022-12-18T08:14:07.160Z,10.57
2022-12-18T08:19:13.438Z,13.02
2022-12-18T08:24:16.681Z,9.02
2022-12-18T08:29:21.704Z,8.60
2022-12-18T08:34:25.042Z,7.57
2022-12-18T08:39:28.107Z,10.60
2022-12-18T08:44:40.316Z,10.25
2022-12-18T08:49:46.540Z,9.73
2022-12-18T08:54:49.603Z,6.63
2022-12-18T08:59:52.756Z,7.80
2022-12-18T09:04:57.801Z,10.02
2022-12-18T09:10:01.020Z,6.65
2022-12-18T09:15:06.488Z,9.35
2022-12-18T09:20:10.202Z,10.85
2022-12-18T09:25:13.409Z,7.38
2022-12-18T09:30:16.544Z,10.45
2022-12-18T09:35:19.769Z,9.20
2022-12-18T09:40:26.556Z,8.18
2022-12-18T09:45:47.443Z,5.80
2022-12-18T09:50:52.869Z,11.82
2022-12-18T09:55:57.403Z,5.97
2022-12-18T10:01:00.925Z,11.35
2022-12-18T10:06:22.215Z,10.77
2022-12-18T10:11:34.396Z,11.15
2022-12-18T10:16:40.872Z,10.25
2022-12-18T10:22:15.134Z,10.85
2022-12-18T10:27:24.454Z,12.25
2022-12-18T10:32:30.544Z,10.80
2022-12-18T10:37:33.700Z,8.18
2022-12-18T10:42:37.171Z,12.32
2022-12-18T10:47:51.070Z,8.73
2022-12-18T10:53:00.461Z,8.55
2022-12-18T10:58:32.701Z,12.23
2022-12-18T11:03:39.752Z,9.73
2022-12-18T11:08:44.868Z,7.32
2022-12-18T11:14:13.628Z,9.02
2022-12-18T11:19:25.567Z,11.25
2022-12-18T11:24:36.831Z,9.35
2022-12-18T11:29:46.445Z,10.68
2022-12-18T11:34:59.002Z,11.02
2022-12-18T11:40:16.129Z,8.75
2022-12-18T11:45:29.278Z,10.18
2022-12-18T11:50:48.073Z,7.07
2022-12-18T11:56:03.665Z,10.07
2022-12-18T12:01:17.991Z,10.77
2022-12-18T12:06:33.668Z,9.65
2022-12-18T12:11:54.999Z,10.65
2022-12-18T12:17:09.064Z,11.30
2022-12-18T12:22:15.195Z,9.98
2022-12-18T12:27:39.171Z,10.38
2022-12-18T12:33:07.087Z,8.73
2022-12-18T12:38:19.611Z,11.45
2022-12-18T12:43:28.666Z,9.15
2022-12-18T12:48:44.711Z,11.95
2022-12-18T12:53:50.098Z,10.73
2022-12-18T12:58:57.392Z,12.90
2022-12-18T13:04:25.153Z,11.30
2022-12-18T13:09:36.721Z,13.05
2022-12-18T13:14:42.263Z,8.85
2022-12-18T13:19:45.713Z,14.32
2022-12-18T13:24:49.890Z,15.57
2022-12-18T13:29:53.195Z,13.82
2022-12-18T13:35:18.226Z,13.93
2022-12-18T13:40:40.864Z,16.23
2022-12-18T13:46:04.631Z,17.17
2022-12-18T13:51:11.311Z,16.30
2022-12-18T13:56:20.966Z,15.88
2022-12-18T14:01:25.417Z,15.18
2022-12-18T14:06:28.900Z,15.45
2022-12-18T14:11:34.807Z,14.85
2022-12-18T14:16:38.341Z,12.50
2022-12-18T14:21:41.946Z,16.17
2022-12-18T14:26:45.723Z,14.52
2022-12-18T14:32:17.378Z,14.20
2022-12-18T14:37:26.281Z,14.43
2022-12-18T14:42:30.010Z,16.48
2022-12-18T14:47:33.247Z,10.70
2022-12-18T14:52:36.754Z,15.02
2022-12-18T14:57:41.644Z,13.45
2022-12-18T15:02:54.906Z,10.10
2022-12-18T15:08:01.603Z,15.93
2022-12-18T15:13:04.664Z,15.45
2022-12-18T15:18:13.363Z,14.50
2022-12-18T15:23:23.000Z,15.05
2022-12-18T15:28:38.164Z,13.90
2022-12-18T15:34:01.962Z,12.98
2022-12-18T15:39:06.683Z,15.60
2022-12-18T15:44:26.732Z,12.40
2022-12-18T15:49:29.894Z,20.90
2022-12-18T15:54:52.785Z,17.00
2022-12-18T15:59:59.496Z,17.92
2022-12-18T16:05:02.826Z,22.10
2022-12-18T16:10:06.871Z,17.25
2022-12-18T16:15:17.473Z,16.08
2022-12-18T16:20:25.333Z,18.95
2022-12-18T16:25:30.180Z,19.25
2022-12-18T16:30:38.288Z,20.63
2022-12-18T16:35:42.102Z,20.92
2022-12-18T16:41:04.939Z,19.02
2022-12-18T16:46:08.122Z,18.75
2022-12-18T16:51:11.335Z,24.83
2022-12-18T16:56:14.507Z,13.98
2022-12-18T17:01:17.689Z,24.50
2022-12-18T17:06:22.615Z,21.02
2022-12-18T17:11:27.849Z,24.25
2022-12-18T17:16:32.396Z,14.80
2022-12-18T17:21:36.772Z,19.95
2022-12-18T17:26:40.817Z,18.08
2022-12-18T17:31:44.237Z,19.95
2022-12-18T17:36:47.439Z,20.85
2022-12-18T17:41:50.983Z,21.30
2022-12-18T17:46:54.251Z,20.17
2022-12-18T17:51:57.547Z,21.65
2022-12-18T17:57:00.691Z,20.83
2022-12-18T18:02:04.065Z,19.17
2022-12-18T18:07:08.087Z,22.77
2022-12-18T18:12:29.613Z,20.02
2022-12-18T18:17:32.751Z,19.77
2022-12-18T18:22:36.066Z,19.20
2022-12-18T18:27:39.732Z,24.05
2022-12-18T18:32:42.835Z,18.80
2022-12-18T18:37:49.113Z,22.58
2022-12-18T18:42:53.676Z,20.65
2022-12-18T18:47:56.747Z,13.77
2022-12-18T18:53:00.476Z,22.83
2022-12-18T18:58:03.608Z,18.52
2022-12-18T19:03:08.790Z,18.42
2022-12-18T19:08:12.129Z,19.88
2022-12-18T19:13:27.439Z,23.55
2022-12-18T19:18:30.787Z,19.42
2022-12-18T19:23:34.902Z,18.15
2022-12-18T19:28:38.182Z,19.55
2022-12-18T19:33:44.188Z,19.45
2022-12-18T19:38:49.496Z,17.83
2022-12-18T19:43:53.190Z,20.00
2022-12-18T19:48:56.308Z,16.77
2022-12-18T19:54:01.817Z,17.27
2022-12-18T19:59:05.526Z,13.90
2022-12-18T20:04:09.091Z,14.13
2022-12-18T20:09:12.469Z,13.73
2022-12-18T20:14:22.981Z,11.98
2022-12-18T20:19:27.052Z,10.18
2022-12-18T20:24:30.482Z,8.55
2022-12-18T20:29:33.582Z,6.82
2022-12-18T20:34:37.080Z,6.97
2022-12-18T20:39:40.751Z,5.38
2022-12-18T20:44:44.257Z,7.68
2022-12-18T20:49:47.637Z,6.47
2022-12-18T20:54:50.834Z,7.35
2022-12-18T20:59:53.912Z,6.82
2022-12-18T21:04:56.954Z,6.38
2022-12-18T21:10:00.066Z,4.90
2022-12-18T21:15:05.701Z,6.40
2022-12-18T21:20:09.733Z,6.45
2022-12-18T21:25:16.525Z,6.03
2022-12-18T21:30:19.788Z,5.07
2022-12-18T21:35:23.327Z,5.57
2022-12-18T21:40:28.560Z,6.50
2022-12-18T21:45:32.070Z,5.78
2022-12-18T21:50:35.105Z,4.93
2022-12-18T21:55:38.165Z,3.63
2022-12-18T22:00:44.528Z,3.05
2022-12-18T22:06:08.880Z,2.85
2022-12-18T22:11:13.652Z,3.42
2022-12-18T22:16:16.798Z,3.20
2022-12-18T22:21:27.143Z,3.88
2022-12-18T22:26:39.538Z,1.52
2022-12-18T22:31:43.477Z,2.38
2022-12-18T22:36:48.373Z,2.83
2022-12-18T22:41:51.940Z,2.53
2022-12-18T22:47:06.078Z,3.05
2022-12-18T22:52:10.631Z,2.92
2022-12-18T22:57:13.808Z,1.23
2022-12-18T23:02:19.302Z,1.73
2022-12-18T23:07:22.641Z,1.10
2022-12-18T23:12:25.974Z,0.93
2022-12-18T23:17:29.286Z,1.45
2022-12-18T23:22:32.458Z,0.95
2022-12-18T23:27:35.685Z,1.60
2022-12-18T23:32:39.314Z,0.82
2022-12-18T23:37:58.600Z,1.83
2022-12-18T23:43:02.733Z,1.50
2022-12-18T23:48:06.035Z,1.63
2022-12-18T23:53:10.511Z,1.95
2022-12-18T23:58:22.692Z,1.40
